Charleston, SC (29410)

12:00 PM EST on December 20, 2014 (GMT -0500)
MesoWest Don Holt Bridge Fog 4 SC US SCDOT | Change Station
CLOSE
Current Station
Personal Weather Station
Location: Charleston, SC
Elevation: 2 ft
Nearby Weather Stations

Elev 2 ft 32.89 °N, 79.96 °W | Updated 529 days ago

Rain
Rain
52 °F
Feels Like 52 °F
N
7
Wind Variable Wind from NNE
Gusts 9 mph

Today
High -- | Low -- °F
--% Chance of Precip.
Yesterday
High -- | Low -- °F
Precip. -- in
7:18 AM 5:17 PM
Waning Crescent, 2% visible
Pressure 30.19 in
Visibility 6.0 miles
Clouds Mostly Cloudy 500 ft
Mostly Cloudy 3000 ft
Overcast 5000 ft
Dew Point 48 °F
Humidity 87%
Rainfall -999.00 in
Snow Depth Not available.
UV 1 out of 12
Pollen .50 out of 12
Air Quality Not available.
Flu Activity Not available.
METAR KCHS 201656Z 03008KT 6SM BR BKN005 BKN030 OVC050 12/11 A3019 RMK AO2 RAE52 SLP224 P0001 T01170106 $

More Conditions Fewer Conditions

Pressure 30.19 in
Visibility 6.0 miles
Clouds Mostly Cloudy 500 ft
Mostly Cloudy 3000 ft
Overcast 5000 ft
Dew Point 48 °F
Humidity 87%
Rainfall -999.00 in
Snow Depth Not available.
UV 1 out of 12
Pollen .50 out of 12
Air Quality Not available.
Flu Activity Not available.
METAR KCHS 201656Z 03008KT 6SM BR BKN005 BKN030 OVC050 12/11 A3019 RMK AO2 RAE52 SLP224 P0001 T01170106 $

More Conditions Fewer Conditions

10-Day Weather Forecast

Almanac

Astronomy

Dec. 20, 2014 Rise Set
Actual Time
Civil Twilight
Nautical Twilight
Astronomical Twilight
Moon
Length of Visible Light
Length of Day
Tomorrow will be .
, % of the Moon is Illuminated

Today's Extremes

State Highs State Lows

Community

WunderPhotos

Upload Photos

1,779,224 photos uploaded!

WunderBlogs® & News

Nearby

Air Quality

  Air Quality AQ Index Pollutant
Not available.

Snow Depth

Station Depth Elevation

Earthquake Activity

City Distance Mag. Time & Date
Minimum magnitude displayed is 2.5.

Coastal Water Temperatures

Place Temperature

Nearby Weather Stations